Time;durP1;ratioP1;P1;durP2;ratioP2;P2;SDS_P1;SDS_P2;PMS_P1;PMS_P2;Temp;Humidity;BMP_temperature;BMP_pressure;BME280_temperature;BME280_humidity;BME280_pressure;Samples;Min_cycle;Max_cycle;Signal;HPM_P1;HPM_P2
2023/05/21 00:00:27;;;;;;;1.50;0.30;;;;;;;13.58;100.00;100470.85;105194;1264;70220;-45
2023/05/21 00:02:54;;;;;;;2.90;0.30;;;;;;;13.55;100.00;100468.09;105228;1263;71245;-45
2023/05/21 00:05:21;;;;;;;2.00;0.30;;;;;;;13.55;100.00;100469.36;105211;1257;62341;-48
2023/05/21 00:07:48;;;;;;;2.20;0.40;;;;;;;13.54;100.00;100470.13;105228;1258;60333;-48
2023/05/21 00:10:15;;;;;;;0.30;0.30;;;;;;;13.52;100.00;100469.13;105173;1263;74862;-47
2023/05/21 00:12:41;;;;;;;0.70;0.30;;;;;;;13.50;100.00;100468.01;105316;1259;68181;-46
2023/05/21 00:15:08;;;;;;;4.40;0.40;;;;;;;13.47;100.00;100469.20;105315;1261;72834;-49
2023/05/21 00:17:35;;;;;;;0.50;0.30;;;;;;;13.41;100.00;100471.86;105439;1261;61745;-48
2023/05/21 00:20:08;;;;;;;1.70;0.30;;;;;;;13.35;100.00;100468.73;105339;1257;62200;-49
2023/05/21 00:22:35;;;;;;;2.30;0.30;;;;;;;13.30;100.00;100470.60;105579;1257;72207;-47
2023/05/21 00:25:03;;;;;;;1.60;0.30;;;;;;;13.26;100.00;100471.34;105248;1263;67953;-47
2023/05/21 00:27:29;;;;;;;3.70;0.30;;;;;;;13.23;100.00;100467.89;105348;1263;73109;-46
2023/05/21 00:29:56;;;;;;;3.50;0.20;;;;;;;13.18;100.00;100467.95;105328;1263;60163;-44
2023/05/21 00:32:23;;;;;;;2.40;0.30;;;;;;;13.09;100.00;100470.49;105335;1260;61405;-48
2023/05/21 00:34:50;;;;;;;2.30;0.30;;;;;;;13.00;100.00;100472.89;105190;1261;72744;-46
2023/05/21 00:37:17;;;;;;;0.50;0.30;;;;;;;12.90;100.00;100473.00;105246;1259;70046;-47
2023/05/21 00:39:44;;;;;;;1.00;0.30;;;;;;;12.81;100.00;100474.13;105377;1260;72599;-47
2023/05/21 00:42:11;;;;;;;0.60;0.30;;;;;;;12.74;100.00;100469.04;105270;1262;60586;-46
2023/05/21 00:44:39;;;;;;;0.90;0.30;;;;;;;12.68;100.00;100464.67;105367;1260;59860;-48
2023/05/21 00:47:06;;;;;;;0.90;0.20;;;;;;;12.61;100.00;100457.60;105088;1257;74389;-46
2023/05/21 00:49:33;;;;;;;4.30;0.30;;;;;;;12.57;100.00;100461.39;105513;1262;69484;-46
2023/05/21 00:52:00;;;;;;;1.60;0.30;;;;;;;12.54;100.00;100465.13;105025;1257;75815;-45
2023/05/21 00:54:27;;;;;;;0.90;0.40;;;;;;;12.49;100.00;100463.16;105391;1262;62567;-47
2023/05/21 00:56:54;;;;;;;4.20;0.30;;;;;;;12.41;100.00;100460.81;105262;1258;62338;-45
2023/05/21 00:59:21;;;;;;;3.70;0.30;;;;;;;12.34;100.00;100456.48;105061;1263;75432;-47
2023/05/21 01:01:54;;;;;;;0.60;0.20;;;;;;;12.28;100.00;100464.49;105098;1264;67071;-47
2023/05/21 01:04:25;;;;;;;0.50;0.30;;;;;;;12.20;100.00;100458.20;105556;1258;71228;-47
2023/05/21 01:06:52;;;;;;;1.40;0.30;;;;;;;12.09;100.00;100459.73;105018;1260;60489;-46
2023/05/21 01:09:19;;;;;;;0.80;0.30;;;;;;;12.01;100.00;100460.45;105381;1258;62624;-46
2023/05/21 01:11:47;;;;;;;3.20;0.30;;;;;;;11.94;100.00;100458.94;105107;1257;73615;-49
2023/05/21 01:14:15;;;;;;;3.00;0.40;;;;;;;11.90;100.00;100460.38;105253;1258;66385;-46
2023/05/21 01:16:43;;;;;;;1.30;0.30;;;;;;;11.84;100.00;100459.03;105206;1264;72455;-46
2023/05/21 01:19:12;;;;;;;1.40;0.40;;;;;;;11.75;100.00;100449.50;105526;1271;62554;-47
2023/05/21 01:21:40;;;;;;;1.30;0.40;;;;;;;11.62;100.00;100451.30;106302;1261;62881;-48
2023/05/21 01:24:07;;;;;;;1.80;0.40;;;;;;;11.54;100.00;100444.80;105018;1257;75574;-46
2023/05/21 01:26:37;;;;;;;0.40;0.30;;;;;;;11.51;100.00;100440.25;105278;1260;68058;-46
2023/05/21 01:29:05;;;;;;;1.50;0.40;;;;;;;11.46;100.00;100439.38;105619;1257;75350;-46
2023/05/21 01:31:47;;;;;;;3.60;0.30;;;;;;;11.40;100.00;100434.38;105279;1264;60965;-45
2023/05/21 01:34:15;;;;;;;1.70;0.30;;;;;;;11.33;100.00;100435.02;108846;1257;60729;-47
2023/05/21 01:36:45;;;;;;;2.10;0.30;;;;;;;11.29;100.00;100430.15;107337;1261;72974;-46
2023/05/21 01:39:15;;;;;;;0.40;0.30;;;;;;;11.21;100.00;100427.27;108888;1257;70124;-47
2023/05/21 01:41:43;;;;;;;2.60;0.40;;;;;;;11.13;100.00;100426.89;108811;1257;71222;-47
2023/05/21 01:44:10;;;;;;;0.40;0.40;;;;;;;11.07;100.00;100432.87;108667;1258;59638;-47
2023/05/21 01:46:37;;;;;;;0.70;0.40;;;;;;;11.03;100.00;100431.05;108901;1256;62195;-47
2023/05/21 01:49:05;;;;;;;2.10;0.30;;;;;;;10.98;100.00;100428.20;106328;1258;74923;-46
2023/05/21 01:51:32;;;;;;;1.80;0.40;;;;;;;10.91;100.00;100432.39;108844;1257;67632;-47
2023/05/21 01:53:59;;;;;;;2.70;0.40;;;;;;;10.86;100.00;100436.20;108655;1256;72533;-47
2023/05/21 01:56:27;;;;;;;2.20;0.50;;;;;;;10.77;100.00;100434.75;108812;1257;59270;-48
2023/05/21 01:58:58;;;;;;;1.70;0.30;;;;;;;10.65;100.00;100432.69;108827;1256;60112;-47
2023/05/21 02:01:28;;;;;;;0.80;0.30;;;;;;;10.56;100.00;100429.60;108802;1256;73492;-47
2023/05/21 02:03:56;;;;;;;2.10;0.40;;;;;;;10.52;100.00;100424.77;106747;1257;69327;-48
2023/05/21 02:06:24;;;;;;;0.90;0.30;;;;;;;10.46;100.00;100425.70;108877;1257;72844;-47
2023/05/21 02:08:51;;;;;;;0.40;0.30;;;;;;;10.39;100.00;100427.40;108772;1257;62006;-48
2023/05/21 02:11:18;;;;;;;0.30;0.30;;;;;;;10.34;100.00;100428.84;108792;1257;61319;-47
2023/05/21 02:13:45;;;;;;;3.50;0.40;;;;;;;10.28;100.00;100427.10;108747;1257;73770;-47
2023/05/21 02:16:13;;;;;;;2.50;0.30;;;;;;;10.22;100.00;100426.73;108794;1257;68592;-47
2023/05/21 02:18:42;;;;;;;2.20;0.40;;;;;;;10.24;100.00;100424.55;108767;1257;73417;-47
2023/05/21 02:21:12;;;;;;;2.40;0.40;;;;;;;10.23;100.00;100427.23;106401;1261;61190;-46
2023/05/21 02:23:40;;;;;;;2.70;0.30;;;;;;;10.17;100.00;100425.14;106894;1257;60475;-45
2023/05/21 02:26:07;;;;;;;1.00;0.40;;;;;;;10.06;100.00;100426.08;105182;1257;73947;-46
2023/05/21 02:28:35;;;;;;;0.50;0.40;;;;;;;9.93;100.00;100423.10;105072;1257;67942;-45
2023/05/21 02:31:02;;;;;;;0.60;0.40;;;;;;;9.82;100.00;100424.73;105243;1258;73561;-45
2023/05/21 02:33:28;;;;;;;3.30;0.30;;;;;;;9.71;100.00;100425.46;105182;1257;60491;-47
2023/05/21 02:35:55;;;;;;;1.90;0.40;;;;;;;9.60;100.00;100425.33;105216;1263;60385;-44
2023/05/21 02:38:24;;;;;;;0.70;0.30;;;;;;;9.55;100.00;100424.40;105201;1264;72481;-45
2023/05/21 02:40:51;;;;;;;0.50;0.30;;;;;;;9.57;100.00;100424.01;105267;1261;67627;-45
2023/05/21 02:43:19;;;;;;;2.30;0.30;;;;;;;9.63;100.00;100421.29;105379;1261;72660;-44
2023/05/21 02:45:45;;;;;;;0.60;0.40;;;;;;;9.66;100.00;100423.50;105263;1258;61660;-46
2023/05/21 02:48:13;;;;;;;0.60;0.40;;;;;;;9.71;100.00;100419.73;105334;1258;60696;-42
2023/05/21 02:50:40;;;;;;;0.70;0.40;;;;;;;9.78;100.00;100422.70;105364;1257;73710;-47
2023/05/21 02:53:07;;;;;;;4.40;0.40;;;;;;;9.88;100.00;100425.23;105003;1257;67735;-44
2023/05/21 02:55:34;;;;;;;1.40;0.40;;;;;;;9.99;100.00;100429.35;105477;1258;74558;-45
2023/05/21 02:58:01;;;;;;;1.00;0.40;;;;;;;10.10;100.00;100430.03;105554;1261;60430;-44
2023/05/21 03:00:28;;;;;;;1.20;0.30;;;;;;;10.19;100.00;100424.35;105373;1254;63005;-47
2023/05/21 03:02:55;;;;;;;1.20;0.40;;;;;;;10.22;100.00;100422.64;105432;1260;75441;-46
2023/05/21 03:05:23;;;;;;;0.70;0.30;;;;;;;10.24;100.00;100425.05;105450;1254;68239;-45
2023/05/21 03:07:50;;;;;;;1.70;0.40;;;;;;;10.29;100.00;100430.66;105572;1256;73537;-45
2023/05/21 03:10:17;;;;;;;0.70;0.40;;;;;;;10.32;100.00;100431.23;105874;1253;60507;-46
2023/05/21 03:12:44;;;;;;;3.20;0.50;;;;;;;10.36;100.00;100434.70;105492;1254;60460;-46
2023/05/21 03:15:13;;;;;;;1.10;0.40;;;;;;;10.39;100.00;100432.55;105614;1256;75516;-46
2023/05/21 03:17:43;;;;;;;2.60;0.50;;;;;;;10.45;100.00;100435.08;105437;1258;68829;-47
2023/05/21 03:20:15;;;;;;;2.70;0.40;;;;;;;10.48;100.00;100437.47;105416;1258;73717;-45
2023/05/21 03:22:43;;;;;;;2.20;0.40;;;;;;;10.49;100.00;100436.17;105632;1254;64203;-45
2023/05/21 03:25:11;;;;;;;1.30;0.40;;;;;;;10.51;100.00;100438.25;105920;1254;61966;-44
2023/05/21 03:27:38;;;;;;;1.20;0.50;;;;;;;10.54;100.00;100445.14;105604;1257;73515;-45
2023/05/21 03:30:10;;;;;;;2.80;0.50;;;;;;;10.57;100.00;100443.04;105447;1254;68359;-47
2023/05/21 03:32:48;;;;;;;3.00;0.50;;;;;;;10.63;100.00;100444.64;106082;1253;74333;-46
2023/05/21 03:35:15;;;;;;;3.00;0.50;;;;;;;10.69;100.00;100442.23;105726;1257;62720;-46
2023/05/21 03:37:42;;;;;;;0.90;0.40;;;;;;;10.76;100.00;100446.29;105427;1260;60399;-45
2023/05/21 03:40:10;;;;;;;1.60;0.60;;;;;;;10.83;100.00;100448.52;105442;1257;74394;-45
2023/05/21 03:42:37;;;;;;;0.70;0.50;;;;;;;10.90;100.00;100448.79;105357;1260;67980;-46
2023/05/21 03:45:05;;;;;;;3.70;0.40;;;;;;;10.96;100.00;100449.65;105269;1260;74198;-48
2023/05/21 03:47:41;;;;;;;5.40;0.50;;;;;;;11.00;100.00;100451.61;105337;1254;60483;-46
2023/05/21 03:50:09;;;;;;;2.70;0.50;;;;;;;11.04;100.00;100453.83;105673;1253;62348;-45
2023/05/21 03:52:36;;;;;;;2.40;0.50;;;;;;;11.06;100.00;100455.70;105125;1254;74062;-44
2023/05/21 03:55:03;;;;;;;0.90;0.40;;;;;;;11.09;100.00;100453.27;106328;1256;70701;-45
2023/05/21 03:57:30;;;;;;;3.90;0.50;;;;;;;11.12;100.00;100451.70;105282;1258;71522;-46
2023/05/21 03:59:57;;;;;;;2.00;0.40;;;;;;;11.16;100.00;100455.33;105007;1256;60597;-46
2023/05/21 04:02:26;;;;;;;1.70;0.50;;;;;;;11.18;100.00;100451.98;105087;1253;62706;-47
2023/05/21 04:04:54;;;;;;;3.00;0.50;;;;;;;11.22;100.00;100451.66;105843;1257;77580;-47
2023/05/21 04:07:22;;;;;;;2.50;0.50;;;;;;;11.26;100.00;100452.91;105336;1254;67279;-46
2023/05/21 04:09:49;;;;;;;3.10;0.40;;;;;;;11.31;100.00;100457.56;105432;1254;75098;-47
2023/05/21 04:12:17;;;;;;;4.10;0.50;;;;;;;11.37;100.00;100460.41;105367;1254;60549;-47
2023/05/21 04:14:45;;;;;;;2.20;0.50;;;;;;;11.41;100.00;100462.93;105422;1258;60818;-47
2023/05/21 04:17:12;;;;;;;3.70;0.60;;;;;;;11.47;100.00;100462.52;105401;1254;74670;-47
2023/05/21 04:19:39;;;;;;;1.60;0.60;;;;;;;11.54;100.00;100463.85;105014;1254;70138;-47
2023/05/21 04:22:08;;;;;;;1.30;0.50;;;;;;;11.59;100.00;100461.13;105541;1253;73012;-48
2023/05/21 04:24:36;;;;;;;0.60;0.50;;;;;;;11.64;100.00;100457.14;105292;1255;60392;-47
2023/05/21 04:27:16;;;;;;;1.40;0.50;;;;;;;11.71;100.00;100450.71;104937;1255;62345;-48
2023/05/21 04:29:43;;;;;;;2.10;0.50;;;;;;;11.75;100.00;100450.93;105329;1253;74046;-48
2023/05/21 04:32:10;;;;;;;1.30;0.60;;;;;;;11.77;100.00;100453.01;105036;1255;67839;-47
2023/05/21 04:34:38;;;;;;;5.30;0.50;;;;;;;11.80;100.00;100450.23;105119;1260;74970;-48
2023/05/21 04:37:05;;;;;;;2.70;0.60;;;;;;;11.83;100.00;100449.51;107076;1253;60533;-47
2023/05/21 04:39:33;;;;;;;2.40;0.70;;;;;;;11.87;100.00;100442.73;109094;1254;60805;-48
2023/05/21 04:42:01;;;;;;;2.20;0.60;;;;;;;11.90;100.00;100444.56;105385;1259;74127;-47
2023/05/21 04:44:28;;;;;;;1.70;0.50;;;;;;;11.94;100.00;100447.06;105294;1254;66017;-50
2023/05/21 04:46:57;;;;;;;1.00;0.50;;;;;;;11.99;100.00;100450.47;108803;1253;73254;-48
2023/05/21 04:49:24;;;;;;;1.20;0.70;;;;;;;12.04;100.00;100452.73;108999;1253;59120;-50
2023/05/21 04:51:51;;;;;;;5.20;0.70;;;;;;;12.14;100.00;100452.70;109034;1253;58722;-51
2023/05/21 04:54:18;;;;;;;1.60;0.70;;;;;;;12.22;100.00;100457.02;109047;1253;75023;-49
2023/05/21 04:56:46;;;;;;;5.10;0.60;;;;;;;12.29;100.00;100447.52;109063;1254;66755;-49
2023/05/21 04:59:13;;;;;;;1.20;0.70;;;;;;;12.36;100.00;100445.02;108047;1259;71728;-48
2023/05/21 05:01:42;;;;;;;2.60;0.60;;;;;;;12.45;100.00;100446.79;104902;1253;61217;-48
2023/05/21 05:04:09;;;;;;;2.60;0.60;;;;;;;12.55;100.00;100445.64;105262;1257;61336;-48
2023/05/21 05:06:36;;;;;;;2.30;0.60;;;;;;;12.63;100.00;100442.77;105162;1254;74955;-48
2023/05/21 05:09:03;;;;;;;1.80;0.80;;;;;;;12.71;100.00;100442.89;105294;1254;67401;-48
2023/05/21 05:11:30;;;;;;;2.20;0.60;;;;;;;12.81;100.00;100446.05;105105;1254;71430;-48
2023/05/21 05:13:57;;;;;;;2.60;0.60;;;;;;;12.90;100.00;100450.15;104864;1253;60920;-48
2023/05/21 05:16:24;;;;;;;2.70;0.70;;;;;;;12.97;100.00;100452.84;104828;1260;59675;-47
2023/05/21 05:18:52;;;;;;;1.40;0.80;;;;;;;13.08;100.00;100455.95;104832;1254;75643;-46
2023/05/21 05:21:20;;;;;;;1.50;0.70;;;;;;;13.17;100.00;100454.43;108978;1253;66214;-49
2023/05/21 05:23:47;;;;;;;2.30;0.70;;;;;;;13.19;100.00;100451.30;109099;1254;71579;-48
2023/05/21 05:26:14;;;;;;;0.90;0.70;;;;;;;13.21;100.00;100455.68;109145;1254;62336;-49
2023/05/21 05:28:41;;;;;;;0.80;0.60;;;;;;;13.25;100.00;100457.14;106002;1254;61193;-49
2023/05/21 05:31:08;;;;;;;1.20;0.60;;;;;;;13.29;100.00;100452.59;105705;1260;76507;-48
2023/05/21 05:33:35;;;;;;;2.20;1.00;;;;;;;13.35;100.00;100452.67;104884;1259;67267;-48
2023/05/21 05:36:02;;;;;;;2.80;0.80;;;;;;;13.41;100.00;100452.55;104879;1260;70974;-49
2023/05/21 05:38:30;;;;;;;2.30;0.70;;;;;;;13.49;100.00;100456.84;104805;1254;60701;-48
2023/05/21 05:40:56;;;;;;;2.20;0.60;;;;;;;13.60;100.00;100460.98;105479;1254;62162;-49
2023/05/21 05:43:25;;;;;;;3.40;0.70;;;;;;;13.72;100.00;100455.02;105232;1254;72526;-50
2023/05/21 05:45:53;;;;;;;1.50;0.60;;;;;;;13.80;100.00;100459.07;105584;1259;68914;-50
2023/05/21 05:48:20;;;;;;;7.10;0.80;;;;;;;13.85;100.00;100457.59;105635;1254;73654;-49
2023/05/21 05:50:47;;;;;;;2.40;1.50;;;;;;;13.90;100.00;100460.01;105399;1251;60327;-48
2023/05/21 05:53:14;;;;;;;2.70;0.60;;;;;;;13.96;100.00;100457.36;105518;1257;60587;-50
2023/05/21 05:55:41;;;;;;;1.70;0.70;;;;;;;14.05;100.00;100451.67;105551;1254;75874;-48
2023/05/21 05:58:07;;;;;;;0.70;0.60;;;;;;;14.13;100.00;100457.55;105539;1259;67620;-47
2023/05/21 06:00:46;;;;;;;0.90;0.60;;;;;;;14.19;100.00;100456.55;105617;1257;73098;-47
2023/05/21 06:03:12;;;;;;;3.70;0.50;;;;;;;14.24;100.00;100452.33;105445;1254;60783;-48
2023/05/21 06:05:40;;;;;;;0.60;0.50;;;;;;;14.31;100.00;100452.65;105493;1253;60711;-48
2023/05/21 06:08:07;;;;;;;4.30;0.70;;;;;;;14.39;100.00;100449.89;105281;1257;74442;-46
2023/05/21 06:10:34;;;;;;;1.80;0.60;;;;;;;14.48;100.00;100447.46;105450;1260;69088;-48
2023/05/21 06:13:02;;;;;;;2.90;0.60;;;;;;;14.56;100.00;100446.52;105531;1257;74821;-48
2023/05/21 06:15:29;;;;;;;1.20;0.60;;;;;;;14.65;100.00;100450.49;105574;1259;60640;-48
2023/05/21 06:17:56;;;;;;;1.80;0.60;;;;;;;14.76;100.00;100456.09;105460;1253;62014;-49
2023/05/21 06:20:22;;;;;;;2.70;0.50;;;;;;;14.82;100.00;100456.27;105259;1259;74471;-47
2023/05/21 06:22:49;;;;;;;0.50;0.50;;;;;;;14.87;100.00;100460.30;105183;1254;69735;-48
2023/05/21 06:25:17;;;;;;;3.20;0.40;;;;;;;14.91;100.00;100460.28;105305;1254;74555;-48
2023/05/21 06:27:43;;;;;;;1.00;0.40;;;;;;;14.96;100.00;100455.16;105250;1254;60484;-47
2023/05/21 06:30:16;;;;;;;0.70;0.50;;;;;;;15.01;100.00;100450.52;105919;1254;61029;-46
2023/05/21 06:32:43;;;;;;;0.50;0.50;;;;;;;15.05;100.00;100450.45;105376;1259;73948;-46
2023/05/21 06:35:10;;;;;;;0.90;0.30;;;;;;;15.10;100.00;100449.83;105002;1254;66995;-49
2023/05/21 06:37:37;;;;;;;0.50;0.40;;;;;;;15.16;100.00;100442.29;105281;1254;72458;-43
2023/05/21 06:40:06;;;;;;;0.90;0.40;;;;;;;15.23;100.00;100443.32;105396;1254;60385;-48
2023/05/21 06:42:33;;;;;;;1.30;0.40;;;;;;;15.29;100.00;100446.09;105118;1259;60404;-49
2023/05/21 06:45:18;;;;;;;1.20;0.40;;;;;;;15.33;100.00;100439.13;104964;1258;76101;-50
2023/05/21 06:47:45;;;;;;;1.30;0.40;;;;;;;15.38;100.00;100438.48;104814;1254;68771;-47
2023/05/21 06:50:12;;;;;;;2.70;0.40;;;;;;;15.46;100.00;100438.16;104885;1257;73412;-47
2023/05/21 06:52:39;;;;;;;2.40;0.40;;;;;;;15.54;100.00;100434.71;105243;1257;60660;-45
2023/05/21 06:55:06;;;;;;;2.50;0.50;;;;;;;15.57;100.00;100434.93;105310;1259;60453;-48
2023/05/21 06:57:56;;;;;;;1.40;0.40;;;;;;;15.63;100.00;100435.08;105236;1254;74610;-46
2023/05/21 07:00:23;;;;;;;2.50;0.40;;;;;;;15.69;100.00;100432.56;105343;1251;69664;-45
2023/05/21 07:02:50;;;;;;;1.40;0.30;;;;;;;15.74;100.00;100434.45;105498;1259;74005;-44
2023/05/21 07:05:18;;;;;;;1.10;0.40;;;;;;;15.79;100.00;100435.93;105650;1259;61466;-46
2023/05/21 07:07:45;;;;;;;1.00;0.40;;;;;;;15.83;100.00;100431.72;105351;1259;60290;-49
2023/05/21 07:10:12;;;;;;;0.80;0.50;;;;;;;15.92;100.00;100430.11;105817;1257;77317;-47
2023/05/21 07:12:40;;;;;;;2.80;0.50;;;;;;;15.99;100.00;100430.55;104729;1257;65874;-48
2023/05/21 07:15:08;;;;;;;2.10;0.50;;;;;;;16.04;100.00;100428.46;106006;1254;74110;-46
2023/05/21 07:17:34;;;;;;;0.90;0.40;;;;;;;16.07;100.00;100426.68;105283;1254;62424;-45
2023/05/21 07:20:04;;;;;;;1.40;0.50;;;;;;;16.13;100.00;100424.48;105481;1258;60514;-43
2023/05/21 07:22:32;;;;;;;4.00;0.50;;;;;;;16.23;100.00;100416.59;105295;1253;72821;-44
2023/05/21 07:24:58;;;;;;;0.40;0.20;;;;;;;16.35;100.00;100414.99;105340;1259;68282;-46
2023/05/21 07:27:25;;;;;;;0.80;0.50;;;;;;;16.43;100.00;100412.66;105404;1254;72571;-47
2023/05/21 07:29:53;;;;;;;0.90;0.40;;;;;;;16.47;100.00;100407.55;105055;1254;60434;-47
2023/05/21 07:32:20;;;;;;;2.40;0.30;;;;;;;16.55;100.00;100401.74;104919;1251;61785;-48
2023/05/21 07:34:47;;;;;;;4.30;0.50;;;;;;;16.67;100.00;100395.62;104871;1252;74549;-49
2023/05/21 07:37:14;;;;;;;2.60;0.30;;;;;;;16.79;100.00;100393.05;104579;1254;68551;-48
2023/05/21 07:39:41;;;;;;;2.30;0.40;;;;;;;16.90;100.00;100396.86;104605;1256;71435;-50
2023/05/21 07:42:09;;;;;;;0.50;0.30;;;;;;;16.99;100.00;100393.16;108827;1253;62737;-53
2023/05/21 07:44:36;;;;;;;2.70;0.40;;;;;;;17.08;100.00;100395.85;109007;1253;61090;-52
2023/05/21 07:47:03;;;;;;;0.40;0.40;;;;;;;17.17;100.00;100396.52;109098;1254;75352;-50
2023/05/21 07:49:31;;;;;;;0.50;0.30;;;;;;;17.22;100.00;100397.81;109099;1254;70040;-51
2023/05/21 07:51:57;;;;;;;0.50;0.30;;;;;;;17.22;100.00;100403.64;109093;1253;72345;-49
2023/05/21 07:54:25;;;;;;;1.40;0.40;;;;;;;17.24;100.00;100400.83;109033;1256;61564;-51
2023/05/21 07:56:52;;;;;;;3.20;0.40;;;;;;;17.27;100.00;100404.16;109119;1253;61950;-51
2023/05/21 07:59:43;;;;;;;4.10;0.30;;;;;;;17.33;100.00;100401.81;109055;1252;73630;-50
2023/05/21 08:02:10;;;;;;;0.60;0.30;;;;;;;17.42;100.00;100398.72;109029;1254;68026;-51
2023/05/21 08:04:37;;;;;;;0.40;0.30;;;;;;;17.49;100.00;100402.23;109075;1253;72616;-52
2023/05/21 08:07:08;;;;;;;4.90;0.40;;;;;;;17.47;100.00;100407.27;105632;1253;60947;-49
2023/05/21 08:09:35;;;;;;;1.60;0.50;;;;;;;17.40;100.00;100401.75;109013;1253;60903;-50
2023/05/21 08:12:03;;;;;;;3.00;0.40;;;;;;;17.37;100.00;100400.80;109104;1253;74576;-51
2023/05/21 08:14:30;;;;;;;1.90;0.30;;;;;;;17.39;100.00;100393.96;109031;1253;67401;-52
2023/05/21 08:16:57;;;;;;;2.00;0.40;;;;;;;17.39;100.00;100383.46;109077;1252;73471;-51
2023/05/21 08:19:23;;;;;;;0.40;0.30;;;;;;;17.37;100.00;100386.14;108998;1254;60351;-50
2023/05/21 08:21:50;;;;;;;2.00;0.40;;;;;;;17.33;100.00;100388.36;109161;1253;59958;-51
2023/05/21 08:24:19;;;;;;;1.40;0.30;;;;;;;17.28;100.00;100381.08;108957;1255;73200;-51
2023/05/21 08:26:48;;;;;;;0.50;0.40;;;;;;;17.26;100.00;100383.05;106239;1253;68770;-50
2023/05/21 08:29:15;;;;;;;1.50;0.50;;;;;;;17.28;100.00;100386.38;108854;1257;74452;-51
2023/05/21 08:31:42;;;;;;;0.40;0.40;;;;;;;17.27;100.00;100382.97;105467;1254;60519;-50
2023/05/21 08:34:09;;;;;;;5.50;0.70;;;;;;;17.26;100.00;100384.18;104483;1259;60479;-49
2023/05/21 08:36:45;;;;;;;1.90;0.60;;;;;;;17.28;100.00;100376.22;104944;1254;74107;-50
2023/05/21 08:39:38;;;;;;;1.80;0.50;;;;;;;17.33;100.00;100376.27;105048;1254;69014;-50
2023/05/21 08:42:10;;;;;;;3.70;0.40;;;;;;;17.36;100.00;100378.41;104962;1255;71387;-53
2023/05/21 08:44:38;;;;;;;4.30;0.40;;;;;;;17.40;100.00;100379.07;108141;1254;61684;-51
2023/05/21 08:47:05;;;;;;;2.40;0.60;;;;;;;17.45;100.00;100369.30;104498;1254;60429;-50
2023/05/21 08:49:32;;;;;;;2.90;0.80;;;;;;;17.45;100.00;100366.20;104788;1254;71973;-50
2023/05/21 08:51:59;;;;;;;1.70;0.50;;;;;;;17.44;100.00;100368.10;105014;1254;69384;-51
2023/05/21 08:54:26;;;;;;;1.70;0.50;;;;;;;17.48;100.00;100368.55;105122;1257;72851;-49
2023/05/21 08:56:54;;;;;;;1.10;0.60;;;;;;;17.56;100.00;100365.08;105231;1257;60523;-50
2023/05/21 08:59:21;;;;;;;2.90;0.50;;;;;;;17.63;100.00;100365.38;105189;1251;61835;-50
2023/05/21 09:01:48;;;;;;;0.40;0.40;;;;;;;17.70;100.00;100360.33;105032;1254;75237;-51
2023/05/21 09:04:26;;;;;;;1.20;0.50;;;;;;;17.82;100.00;100356.85;105160;1257;70293;-50
2023/05/21 09:06:54;;;;;;;3.70;0.50;;;;;;;17.90;100.00;100353.34;106732;1254;74374;-52
2023/05/21 09:09:57;;;;;;;0.80;0.40;;;;;;;18.02;100.00;100361.23;104956;1254;60453;-47
2023/05/21 09:12:24;;;;;;;1.00;0.70;;;;;;;18.08;100.00;100356.79;105758;1253;61019;-52
2023/05/21 09:14:51;;;;;;;1.10;0.40;;;;;;;18.11;100.00;100354.38;104877;1254;76330;-50
2023/05/21 09:17:23;;;;;;;1.20;0.60;;;;;;;18.19;100.00;100356.63;106036;1257;68035;-51
2023/05/21 09:22:47;;;;;;;4.50;0.50;;;;;;;18.25;100.00;100351.77;105239;1254;62634;-50
2023/05/21 09:27:58;;;;;;;2.60;0.80;;;;;;;18.26;100.00;100355.73;102325;1291;601225;-51
2023/05/21 09:30:26;;;;;;;1.00;0.50;;;;;;;18.22;100.00;100348.39;104396;1270;60809;-52
2023/05/21 09:32:57;;;;;;;1.00;0.50;;;;;;;18.25;100.00;100348.14;104579;1264;60868;-51
2023/05/21 09:35:24;;;;;;;3.70;0.50;;;;;;;18.33;100.00;100344.33;105050;1266;71205;-50
2023/05/21 09:37:51;;;;;;;1.60;0.50;;;;;;;18.43;100.00;100348.69;104596;1266;68321;-51
2023/05/21 09:40:20;;;;;;;4.00;0.50;;;;;;;18.54;100.00;100342.48;104799;1269;74351;-53
2023/05/21 09:42:49;;;;;;;3.30;0.50;;;;;;;18.57;100.00;100338.81;104810;1268;289222;-50
2023/05/21 09:45:23;;;;;;;2.00;0.50;;;;;;;18.54;100.00;100332.65;105464;1257;61014;-52
2023/05/21 09:47:52;;;;;;;6.40;0.50;;;;;;;18.53;100.00;100334.90;105298;1257;74306;-53
2023/05/21 09:50:24;;;;;;;1.40;0.60;;;;;;;18.55;100.00;100329.48;105299;1260;68088;-53
2023/05/21 09:52:54;;;;;;;2.30;0.50;;;;;;;18.59;100.00;100327.40;106594;1260;74708;-52
2023/05/21 09:55:21;;;;;;;1.80;0.50;;;;;;;18.66;100.00;100329.45;105308;1256;60603;-53
2023/05/21 09:57:48;;;;;;;0.60;0.50;;;;;;;18.67;100.00;100324.81;105284;1256;60044;-51
2023/05/21 10:00:21;;;;;;;2.60;0.50;;;;;;;18.65;100.00;100327.91;105300;1261;71265;-52
2023/05/21 10:02:53;;;;;;;0.60;0.50;;;;;;;18.68;100.00;100321.86;105295;1257;68324;-52
2023/05/21 10:05:20;;;;;;;1.40;0.50;;;;;;;18.74;100.00;100323.92;105323;1257;73287;-52
2023/05/21 10:07:49;;;;;;;1.20;0.40;;;;;;;18.80;100.00;100324.41;105424;1260;60366;-53
2023/05/21 10:10:17;;;;;;;1.60;0.40;;;;;;;18.84;100.00;100332.27;105389;1262;59712;-51
2023/05/21 10:12:52;;;;;;;0.70;0.40;;;;;;;18.83;100.00;100328.73;105239;1257;74857;-52
2023/05/21 10:15:22;;;;;;;0.70;0.40;;;;;;;18.81;100.00;100324.47;105176;1257;66703;-52
2023/05/21 10:17:49;;;;;;;3.70;0.60;;;;;;;18.80;100.00;100320.35;105619;1262;74343;-55
2023/05/21 10:20:16;;;;;;;1.30;0.50;;;;;;;18.77;100.00;100319.20;104758;1256;62380;-51
2023/05/21 10:22:43;;;;;;;1.70;0.50;;;;;;;18.74;100.00;100317.55;104941;1265;60224;-53
2023/05/21 10:25:11;;;;;;;4.10;0.60;;;;;;;18.71;100.00;100315.23;104948;1256;73377;-52
2023/05/21 10:27:38;;;;;;;1.00;0.50;;;;;;;18.70;100.00;100316.75;104963;1256;68057;-53
2023/05/21 10:30:05;;;;;;;0.90;0.40;;;;;;;18.68;100.00;100312.89;104873;1257;74754;-53
2023/05/21 10:32:32;;;;;;;2.90;0.50;;;;;;;18.74;100.00;100312.69;104977;1264;61782;-53
2023/05/21 10:35:01;;;;;;;1.00;0.40;;;;;;;18.73;100.00;100313.66;108840;1256;59265;-52
2023/05/21 10:37:28;;;;;;;0.30;0.30;;;;;;;18.66;100.00;100305.81;108236;1257;73011;-47
2023/05/21 10:39:55;;;;;;;1.00;0.50;;;;;;;18.68;100.00;100306.73;105336;1258;67679;-48
2023/05/21 10:42:29;;;;;;;2.90;0.40;;;;;;;18.71;100.00;100304.34;105396;1256;71593;-46
2023/05/21 10:45:10;;;;;;;0.60;0.50;;;;;;;18.74;100.00;100309.56;105204;1256;62234;-49
2023/05/21 10:48:00;;;;;;;0.50;0.50;;;;;;;18.85;100.00;100313.30;105138;1256;62838;-50
2023/05/21 10:51:05;;;;;;;0.70;0.40;;;;;;;18.99;100.00;100310.60;108500;1259;73698;-54
2023/05/21 10:53:51;;;;;;;0.50;0.40;;;;;;;19.13;100.00;100313.23;105338;1257;70389;-47
2023/05/21 10:56:28;;;;;;;3.00;0.40;;;;;;;19.21;100.00;100315.14;105866;1260;74768;-50
2023/05/21 10:59:04;;;;;;;1.10;0.40;;;;;;;19.21;100.00;100316.63;107981;1256;58751;-52
2023/05/21 11:01:32;;;;;;;0.80;0.40;;;;;;;19.18;100.00;100309.38;105735;1255;59670;-51
2023/05/21 11:04:00;;;;;;;2.30;0.40;;;;;;;19.14;100.00;100313.15;107043;1262;73695;-49
2023/05/21 11:06:28;;;;;;;2.90;0.40;;;;;;;19.14;100.00;100311.64;105297;1257;67169;-51
2023/05/21 11:08:55;;;;;;;4.30;0.50;;;;;;;19.22;100.00;100305.41;105270;1260;74953;-50
2023/05/21 11:11:41;;;;;;;1.30;0.40;;;;;;;19.31;100.00;100306.20;108862;1262;58880;-46
2023/05/21 11:14:31;;;;;;;1.60;0.40;;;;;;;19.36;100.00;100308.73;108980;1255;61247;-50
2023/05/21 11:17:00;;;;;;;1.90;0.50;;;;;;;19.32;100.00;100309.98;107234;1262;74974;-47
2023/05/21 11:19:37;;;;;;;1.00;0.40;;;;;;;19.30;100.00;100308.45;106110;1256;67855;-53
2023/05/21 11:22:21;;;;;;;1.60;0.50;;;;;;;19.35;100.00;100309.16;107054;1259;74803;-48